createdAt,value
2022-10-04T00:00:47.740Z,81.52
2022-10-04T00:04:28.596Z,81.68
2022-10-04T00:07:36.001Z,81.74
2022-10-04T00:10:38.907Z,81.56
2022-10-04T00:13:49.559Z,81.45
2022-10-04T00:16:53.553Z,81.76
2022-10-04T00:19:56.555Z,81.66
2022-10-04T00:23:26.458Z,81.42
2022-10-04T00:26:29.328Z,81.64
2022-10-04T00:29:39.005Z,81.31
2022-10-04T00:32:41.808Z,81.48
2022-10-04T00:35:44.692Z,81.38
2022-10-04T00:39:03.994Z,81.26
2022-10-04T00:42:13.700Z,81.68
2022-10-04T00:45:25.082Z,81.72
2022-10-04T00:48:45.199Z,82.13
2022-10-04T00:51:57.822Z,82.36
2022-10-04T00:55:07.182Z,82.51
2022-10-04T00:58:20.536Z,82.38
2022-10-04T01:01:26.669Z,82.31
2022-10-04T01:04:39.152Z,82.31
2022-10-04T01:07:46.877Z,82.37
2022-10-04T01:10:58.140Z,82.36
2022-10-04T01:14:45.374Z,82.68
2022-10-04T01:18:09.562Z,82.77
2022-10-04T01:21:21.472Z,82.96
2022-10-04T01:24:24.484Z,82.77
2022-10-04T01:27:47.570Z,82.63
2022-10-04T01:30:50.929Z,82.72
2022-10-04T01:33:57.651Z,82.68
2022-10-04T01:37:01.241Z,82.75
2022-10-04T01:40:04.510Z,82.50
2022-10-04T01:43:11.454Z,82.43
2022-10-04T01:46:23.949Z,82.47
2022-10-04T01:49:32.636Z,82.21
2022-10-04T01:52:49.038Z,82.17
2022-10-04T01:55:55.894Z,81.94
2022-10-04T01:59:02.731Z,81.86
2022-10-04T02:02:49.509Z,81.78
2022-10-04T02:05:56.880Z,81.65
2022-10-04T02:09:02.192Z,81.69
2022-10-04T02:12:06.373Z,81.58
2022-10-04T02:15:11.678Z,81.40
2022-10-04T02:18:21.374Z,81.48
2022-10-04T02:21:24.756Z,81.52
2022-10-04T02:24:35.718Z,81.46
2022-10-04T02:27:38.586Z,81.34
2022-10-04T02:31:06.139Z,81.29
2022-10-04T02:34:09.353Z,81.37
2022-10-04T02:37:12.712Z,81.21
2022-10-04T02:40:20.024Z,81.31
2022-10-04T02:43:27.861Z,81.21
2022-10-04T02:46:45.007Z,81.29
2022-10-04T02:49:53.315Z,81.22
2022-10-04T02:53:10.474Z,81.45
2022-10-04T02:56:13.947Z,81.49
2022-10-04T02:59:18.131Z,81.55
2022-10-04T03:02:31.385Z,81.75
2022-10-04T03:05:34.951Z,81.92
2022-10-04T03:08:43.718Z,81.86
2022-10-04T03:11:47.978Z,82.02
2022-10-04T03:14:53.852Z,81.90
2022-10-04T03:17:56.903Z,82.11
2022-10-04T03:21:05.230Z,82.27
2022-10-04T03:24:15.537Z,82.19
2022-10-04T03:27:29.199Z,82.21
2022-10-04T03:31:28.722Z,82.23
2022-10-04T03:34:38.521Z,82.50
2022-10-04T03:37:42.005Z,82.32
2022-10-04T03:40:53.371Z,82.27
2022-10-04T03:43:58.567Z,82.50
2022-10-04T03:47:54.474Z,82.47
2022-10-04T03:50:58.868Z,82.71
2022-10-04T03:54:03.476Z,82.61
2022-10-04T03:57:06.810Z,82.51
2022-10-04T04:00:17.153Z,82.62
2022-10-04T04:03:21.278Z,82.65
2022-10-04T04:06:29.446Z,82.39
2022-10-04T04:09:41.622Z,82.60
2022-10-04T04:12:52.845Z,82.39
2022-10-04T04:15:57.130Z,82.73
2022-10-04T04:19:02.966Z,82.72
2022-10-04T04:22:06.035Z,82.75
2022-10-04T04:25:16.205Z,83.20
2022-10-04T04:28:27.130Z,83.28
2022-10-04T04:31:58.051Z,83.20
2022-10-04T04:35:07.333Z,83.41
2022-10-04T04:38:26.255Z,83.23
2022-10-04T04:41:33.528Z,83.16
2022-10-04T04:44:47.821Z,82.97
2022-10-04T04:47:53.322Z,83.03
2022-10-04T04:50:58.236Z,82.83
2022-10-04T04:54:05.288Z,82.81
2022-10-04T04:57:08.658Z,82.71
2022-10-04T05:00:18.593Z,82.73
2022-10-04T05:03:21.859Z,82.74
2022-10-04T05:06:29.108Z,82.62
2022-10-04T05:09:37.353Z,82.82
2022-10-04T05:12:40.470Z,82.80
2022-10-04T05:15:44.204Z,82.74
2022-10-04T05:18:48.058Z,82.81
2022-10-04T05:21:54.052Z,82.95
2022-10-04T05:25:03.157Z,82.89
2022-10-04T05:28:06.410Z,82.81
2022-10-04T05:31:27.990Z,82.81
2022-10-04T05:34:37.310Z,82.82
2022-10-04T05:37:51.618Z,82.74
2022-10-04T05:41:08.003Z,82.73
2022-10-04T05:44:26.691Z,82.64
2022-10-04T05:47:31.062Z,82.65
2022-10-04T05:50:40.783Z,82.56
2022-10-04T05:53:44.324Z,82.48
2022-10-04T05:57:24.588Z,82.34
2022-10-04T06:00:57.206Z,82.41
2022-10-04T06:04:00.302Z,82.22
2022-10-04T06:07:41.543Z,82.30
2022-10-04T06:10:57.880Z,82.37
2022-10-04T06:14:09.444Z,82.52
2022-10-04T06:17:29.440Z,82.60
2022-10-04T06:21:02.708Z,82.39
2022-10-04T06:24:17.358Z,82.43
2022-10-04T06:27:25.740Z,82.45
2022-10-04T06:30:39.626Z,82.38
2022-10-04T06:34:00.906Z,82.22
2022-10-04T06:37:19.099Z,82.19
2022-10-04T06:40:40.616Z,81.96
2022-10-04T06:44:31.038Z,81.91
2022-10-04T06:47:37.476Z,81.73
2022-10-04T06:51:16.120Z,81.54
2022-10-04T06:54:40.843Z,81.57
2022-10-04T06:58:15.370Z,81.49
2022-10-04T07:01:24.436Z,81.39
2022-10-04T07:05:07.124Z,81.31
2022-10-04T07:08:34.406Z,81.07
2022-10-04T07:11:51.403Z,80.97
2022-10-04T07:15:00.531Z,80.86
2022-10-04T07:18:09.147Z,80.85
2022-10-04T07:21:16.797Z,80.71
2022-10-04T07:24:27.313Z,80.55
2022-10-04T07:28:15.171Z,80.52
2022-10-04T07:31:28.247Z,80.42
2022-10-04T07:34:36.872Z,80.37
2022-10-04T07:37:58.267Z,80.22
2022-10-04T07:41:03.465Z,80.09
2022-10-04T07:44:44.975Z,79.96
2022-10-04T07:47:48.351Z,79.50
2022-10-04T07:51:15.970Z,79.47
2022-10-04T07:54:18.762Z,79.28
2022-10-04T07:57:40.804Z,79.53
2022-10-04T08:01:05.093Z,79.20
2022-10-04T08:04:11.001Z,79.08
2022-10-04T08:07:21.453Z,78.92
2022-10-04T08:10:35.632Z,78.55
2022-10-04T08:13:51.517Z,78.58
2022-10-04T08:17:06.133Z,78.18
2022-10-04T08:20:25.911Z,78.12
2022-10-04T08:24:07.577Z,78.08
2022-10-04T08:27:29.770Z,77.44
2022-10-04T08:30:52.952Z,77.37
2022-10-04T08:34:21.602Z,77.34
2022-10-04T08:37:53.915Z,77.42
2022-10-04T08:41:35.383Z,76.78
2022-10-04T08:45:02.308Z,75.70
2022-10-04T08:48:12.905Z,75.91
2022-10-04T08:51:54.165Z,75.97
2022-10-04T08:55:38.874Z,76.17
2022-10-04T08:58:49.093Z,75.79
2022-10-04T09:02:25.150Z,75.55
2022-10-04T09:06:05.560Z,74.51
2022-10-04T09:09:27.800Z,74.06
2022-10-04T09:12:44.907Z,73.99
2022-10-04T09:16:15.101Z,73.74
2022-10-04T09:19:40.950Z,73.58
2022-10-04T09:22:57.327Z,73.27
2022-10-04T09:26:15.610Z,73.74
2022-10-04T09:29:54.630Z,74.04
2022-10-04T09:33:15.554Z,73.55
2022-10-04T09:36:41.627Z,73.72
2022-10-04T09:39:44.722Z,72.51
2022-10-04T09:43:12.575Z,72.19
2022-10-04T09:46:30.388Z,70.87
2022-10-04T09:49:59.015Z,70.09
2022-10-04T09:53:07.588Z,70.23
2022-10-04T09:56:42.504Z,69.88
2022-10-04T10:00:14.561Z,69.62
2022-10-04T10:03:50.338Z,69.74
2022-10-04T10:07:22.559Z,69.02
2022-10-04T10:10:56.311Z,67.93
2022-10-04T10:14:24.268Z,68.92
2022-10-04T10:17:41.597Z,68.79
2022-10-04T10:21:10.662Z,68.69
2022-10-04T10:24:44.102Z,68.31
2022-10-04T10:27:57.569Z,68.80
2022-10-04T10:31:31.903Z,69.09
2022-10-04T10:34:57.113Z,69.37
2022-10-04T10:38:19.696Z,68.15
2022-10-04T10:41:49.636Z,68.77
2022-10-04T10:45:16.247Z,68.29
2022-10-04T10:48:35.557Z,67.63
2022-10-04T10:52:15.925Z,66.38
2022-10-04T10:55:44.816Z,66.08
2022-10-04T10:59:17.846Z,65.95
2022-10-04T11:02:50.016Z,66.70
2022-10-04T11:06:15.141Z,65.69
2022-10-04T11:09:39.161Z,66.25
2022-10-04T11:13:08.178Z,66.47
2022-10-04T11:16:54.741Z,66.81
2022-10-04T11:20:18.547Z,66.80
2022-10-04T11:23:44.246Z,67.56
2022-10-04T11:27:06.395Z,68.22
2022-10-04T11:30:15.138Z,67.67
2022-10-04T11:33:39.753Z,67.90
2022-10-04T11:37:18.103Z,67.88
2022-10-04T11:40:47.482Z,67.94
2022-10-04T11:44:19.196Z,68.39
2022-10-04T11:47:31.948Z,68.00
2022-10-04T11:50:49.364Z,67.66
2022-10-04T11:54:13.282Z,68.02
2022-10-04T11:57:31.319Z,68.47
2022-10-04T12:00:53.792Z,67.50
2022-10-04T12:04:09.041Z,66.11
2022-10-04T12:07:24.399Z,64.89
2022-10-04T12:10:40.654Z,64.80
2022-10-04T12:13:46.391Z,65.22
2022-10-04T12:17:08.749Z,64.28
2022-10-04T12:20:30.060Z,64.63
2022-10-04T12:24:00.302Z,64.33
2022-10-04T12:27:22.049Z,62.71
2022-10-04T12:31:08.137Z,62.05
2022-10-04T12:34:14.835Z,63.18
2022-10-04T12:37:41.052Z,62.77
2022-10-04T12:40:53.389Z,62.58
2022-10-04T12:44:37.692Z,62.54
2022-10-04T12:48:20.981Z,62.48
2022-10-04T12:52:14.310Z,62.70
2022-10-04T12:55:35.746Z,62.45
2022-10-04T12:59:12.213Z,60.27
2022-10-04T13:02:36.636Z,60.83
2022-10-04T13:06:07.327Z,61.71
2022-10-04T13:09:19.173Z,62.06
2022-10-04T13:12:29.884Z,62.13
2022-10-04T13:19:38.111Z,63.40
2022-10-04T13:23:01.803Z,63.11
2022-10-04T13:26:23.838Z,62.23
2022-10-04T13:29:42.906Z,62.11
2022-10-04T13:32:53.175Z,62.61
2022-10-04T13:36:08.381Z,63.40
2022-10-04T13:39:36.012Z,63.67
2022-10-04T13:43:08.506Z,63.30
2022-10-04T13:46:48.851Z,63.75
2022-10-04T13:49:58.171Z,63.42
2022-10-04T13:53:44.614Z,63.67
2022-10-04T13:57:07.123Z,63.35
2022-10-04T14:00:35.025Z,63.34
2022-10-04T14:04:08.392Z,63.58
2022-10-04T14:07:34.774Z,63.10
2022-10-04T14:11:02.853Z,62.49
2022-10-04T14:14:33.307Z,63.50
2022-10-04T14:18:01.491Z,63.91
2022-10-04T14:21:19.363Z,63.83
2022-10-04T14:24:39.169Z,63.37
2022-10-04T14:28:00.423Z,63.36
2022-10-04T14:31:47.238Z,63.82
2022-10-04T14:35:16.340Z,63.30
2022-10-04T14:38:53.922Z,64.13
2022-10-04T14:42:44.511Z,64.63
2022-10-04T14:46:07.268Z,64.17
2022-10-04T14:49:51.626Z,64.08
2022-10-04T14:53:32.349Z,64.38
2022-10-04T14:56:45.421Z,64.57
2022-10-04T15:00:12.594Z,64.53
2022-10-04T15:03:29.607Z,64.93
2022-10-04T15:06:40.331Z,64.99
2022-10-04T15:09:47.075Z,65.12
2022-10-04T15:13:18.151Z,64.93
2022-10-04T15:16:53.690Z,64.45
2022-10-04T15:20:20.927Z,64.03
2022-10-04T15:23:35.246Z,63.79
2022-10-04T15:26:48.350Z,63.19
2022-10-04T15:30:30.860Z,63.35
2022-10-04T15:34:02.246Z,63.93
2022-10-04T15:37:28.274Z,63.55
2022-10-04T15:40:48.246Z,63.61
2022-10-04T15:44:12.924Z,63.71
2022-10-04T15:47:25.200Z,64.48
2022-10-04T15:51:02.281Z,64.77
2022-10-04T15:54:40.406Z,64.74
2022-10-04T15:57:55.524Z,64.89
2022-10-04T16:01:20.568Z,65.00
2022-10-04T16:04:26.039Z,65.11
2022-10-04T16:07:40.678Z,65.39
2022-10-04T16:11:07.131Z,65.25
2022-10-04T16:14:37.799Z,65.17
2022-10-04T16:18:05.426Z,65.25
2022-10-04T16:21:37.230Z,65.48
2022-10-04T16:24:45.782Z,65.52
2022-10-04T16:27:57.391Z,65.92
2022-10-04T16:31:14.483Z,65.92
2022-10-04T16:34:45.438Z,65.94
2022-10-04T16:38:13.045Z,66.10
2022-10-04T16:41:33.655Z,66.23
2022-10-04T16:44:52.136Z,66.34
2022-10-04T16:48:00.249Z,66.47
2022-10-04T16:51:23.614Z,66.65
2022-10-04T16:54:58.178Z,66.71
2022-10-04T16:58:41.489Z,66.78
2022-10-04T17:02:28.423Z,67.00
2022-10-04T17:05:47.403Z,67.09
2022-10-04T17:09:06.962Z,67.16
2022-10-04T17:12:35.585Z,67.26
2022-10-04T17:15:44.414Z,67.33
2022-10-04T17:19:20.780Z,67.28
2022-10-04T17:22:34.259Z,67.39
2022-10-04T17:25:48.322Z,67.43
2022-10-04T17:28:58.359Z,67.31
2022-10-04T17:32:16.396Z,67.34
2022-10-04T17:35:23.502Z,67.41
2022-10-04T17:38:29.991Z,67.53
2022-10-04T17:42:27.682Z,67.53
2022-10-04T17:45:51.250Z,67.61
2022-10-04T17:49:21.892Z,67.52
2022-10-04T17:52:52.688Z,67.27
2022-10-04T17:55:58.066Z,67.36
2022-10-04T17:59:12.605Z,67.32
2022-10-04T18:02:45.664Z,67.55
2022-10-04T18:05:58.351Z,67.47
2022-10-04T18:09:10.966Z,67.60
2022-10-04T18:12:26.611Z,67.61
2022-10-04T18:15:38.845Z,67.88
2022-10-04T18:18:47.451Z,67.89
2022-10-04T18:21:54.703Z,67.91
2022-10-04T18:25:21.455Z,67.89
2022-10-04T18:28:25.612Z,67.90
2022-10-04T18:31:40.454Z,68.12
2022-10-04T18:34:43.654Z,68.39
2022-10-04T18:37:46.926Z,68.44
2022-10-04T18:41:04.601Z,68.56
2022-10-04T18:44:15.726Z,68.88
2022-10-04T18:47:31.847Z,69.03
2022-10-04T18:50:46.969Z,69.13
2022-10-04T18:54:16.779Z,68.98
2022-10-04T18:57:27.103Z,68.96
2022-10-04T19:01:04.177Z,69.14
2022-10-04T19:04:17.377Z,69.21
2022-10-04T19:07:36.919Z,69.29
2022-10-04T19:10:52.531Z,69.30
2022-10-04T19:14:34.737Z,69.37
2022-10-04T19:18:19.920Z,69.45
2022-10-04T19:21:29.220Z,69.61
2022-10-04T19:24:49.008Z,69.42
2022-10-04T19:28:01.006Z,69.39
2022-10-04T19:31:26.498Z,69.48
2022-10-04T19:34:57.482Z,69.59
2022-10-04T19:38:10.176Z,69.58
2022-10-04T19:41:45.271Z,69.40
2022-10-04T19:44:52.670Z,69.14
2022-10-04T19:48:01.818Z,69.10
2022-10-04T19:51:09.322Z,68.88
2022-10-04T19:54:22.670Z,68.85
2022-10-04T19:57:37.366Z,68.91
2022-10-04T20:00:40.564Z,69.02
2022-10-04T20:03:46.801Z,69.02
2022-10-04T20:06:56.369Z,68.91
2022-10-04T20:10:28.981Z,68.94
2022-10-04T20:13:34.558Z,68.89
2022-10-04T20:16:48.368Z,69.06
2022-10-04T20:19:52.340Z,68.91
2022-10-04T20:22:57.201Z,68.87
2022-10-04T20:26:00.927Z,68.87
2022-10-04T20:29:05.227Z,68.70
2022-10-04T20:32:12.808Z,68.69
2022-10-04T20:35:54.702Z,68.77
2022-10-04T20:39:00.144Z,68.86
2022-10-04T20:42:21.719Z,68.91
2022-10-04T20:45:27.661Z,69.12
2022-10-04T20:48:37.563Z,69.18
2022-10-04T20:51:47.964Z,69.10
2022-10-04T20:54:54.506Z,69.13
2022-10-04T20:58:03.651Z,69.10
2022-10-04T21:01:36.925Z,69.30
2022-10-04T21:04:44.820Z,69.34
2022-10-04T21:07:47.749Z,69.18
2022-10-04T21:11:08.620Z,69.08
2022-10-04T21:14:26.570Z,69.18
2022-10-04T21:17:29.337Z,69.10
2022-10-04T21:20:43.505Z,68.88
2022-10-04T21:23:46.733Z,68.81
2022-10-04T21:26:59.449Z,68.82
2022-10-04T21:30:05.897Z,68.90
2022-10-04T21:33:08.766Z,68.85
2022-10-04T21:36:11.671Z,68.73
2022-10-04T21:39:14.719Z,68.64
2022-10-04T21:42:18.222Z,68.81
2022-10-04T21:45:21.064Z,68.73
2022-10-04T21:48:24.862Z,68.68
2022-10-04T21:51:27.660Z,68.69
2022-10-04T21:54:30.424Z,68.72
2022-10-04T21:57:35.659Z,68.88
2022-10-04T22:00:39.083Z,69.01
2022-10-04T22:03:41.896Z,69.27
2022-10-04T22:06:45.403Z,69.19
2022-10-04T22:09:48.390Z,69.37
2022-10-04T22:12:51.429Z,69.64
2022-10-04T22:15:55.318Z,69.81
2022-10-04T22:18:58.355Z,69.84
2022-10-04T22:22:01.371Z,69.93
2022-10-04T22:25:13.709Z,70.02
2022-10-04T22:28:26.852Z,70.13
2022-10-04T22:31:29.885Z,70.24
2022-10-04T22:34:32.787Z,70.19
2022-10-04T22:37:35.729Z,70.25
2022-10-04T22:40:38.695Z,70.33
2022-10-04T22:43:41.692Z,70.41
2022-10-04T22:47:07.066Z,70.51
2022-10-04T22:50:27.154Z,70.65
2022-10-04T22:53:30.182Z,70.58
2022-10-04T22:56:33.187Z,70.50
2022-10-04T22:59:42.389Z,70.47
2022-10-04T23:02:45.526Z,70.42
2022-10-04T23:05:48.652Z,70.45
2022-10-04T23:08:51.557Z,70.62
2022-10-04T23:11:54.435Z,70.97
2022-10-04T23:14:57.196Z,70.76
2022-10-04T23:18:00.120Z,70.63
2022-10-04T23:21:03.526Z,70.62
2022-10-04T23:24:12.527Z,71.01
2022-10-04T23:27:17.470Z,71.08
2022-10-04T23:30:22.807Z,71.17
2022-10-04T23:33:25.675Z,71.24
2022-10-04T23:36:28.786Z,71.57
2022-10-04T23:39:34.926Z,71.69
2022-10-04T23:42:38.011Z,71.74
2022-10-04T23:45:44.200Z,72.08
2022-10-04T23:48:48.552Z,72.19
2022-10-04T23:51:58.681Z,72.19
2022-10-04T23:55:02.838Z,72.10
2022-10-04T23:58:22.299Z,72.11
